Etusivu
METAR-TAF:

METAR-TAF

Lentoasemat :

Payerne, Sveitsi

Leveyspiiri: 46-49N, Pituuspiiri: 006-57E, korkeus merenpinnasta: 490 m

Tämänhetkinen sää

Tämä raportti tehtiin 8 minuuttia sitten, kello 08.50 UTC
Tuuli 13 kn koillisesta, vaihdellen pohjoisen ja idän/koillisen välillä
Lämpötila 2°C
Kosteus 80%
Ilmanpaine 1008 hPa
Näkyvyys: 3400 m
Hajonneita pilviä 1400 ft:n korkeudessa
Pilvistä 1900 ft:n korkeudessa
heikkoja vesikuuroja

METAR: LSMP 190850Z 04013KT 010V070 3400 -SHRA BKN014 OVC019 02/M01 Q1008 RMK YLO

Aika: 09:58 (08:58 UTC)


TAF: puuttuu

Säähavainnot ja -ennusteet yli 4000 lentoasemalta (METAR- ja TAF-raportit).

Käytössä olevat sääasemat on merkitty karttaan keltaisilla ja punaisilla pisteillä.

Aseta hiiri pisteen päälle nähdäksesi sääaseman nimen.

Klikkaa sitten nähdäksesi säähavainnot ja -ennusteet.

Kartan vaihtaminen: klikkaa mustalla rastilla varustettuja vihreitä pisteitä, niin voit zoomata sisään; viivalla varustettua vihreää pistettä, niin voit zoomata ulos tai vihreitä nuolia, niin pääset viereisille kartoille.


METAR-TAF: